Time;durP1;ratioP1;P1;durP2;ratioP2;P2;SDS_P1;SDS_P2;PMS_P1;PMS_P2;Temp;Humidity;BMP_temperature;BMP_pressure;BME280_temperature;BME280_humidity;BME280_pressure;Samples;Min_cycle;Max_cycle;Signal;HPM_P1;HPM_P2
2022/11/06 00:02:09;;;;;;;;;;;;;;;8.37;100.00;98135.84;5031271;28;19935;-87
2022/11/06 00:04:34;;;;;;;;;;;;;;;8.40;100.00;98128.38;5059348;28;19916;-89
2022/11/06 00:07:00;;;;;;;;;;;;;;;8.46;100.00;98125.97;5064114;28;19927;-89
2022/11/06 00:09:26;;;;;;;;;;;;;;;8.40;100.00;98125.75;5020751;28;19917;-89
2022/11/06 00:11:51;;;;;;;;;;;;;;;8.39;100.00;98124.16;5050504;28;19987;-89
2022/11/06 00:14:20;;;;;;;;;;;;;;;8.50;100.00;98119.34;5054344;28;19921;-90
2022/11/06 00:16:46;;;;;;;;;;;;;;;8.43;100.00;98112.28;5057772;28;20256;-87
2022/11/06 00:19:16;;;;;;;;;;;;;;;8.49;100.00;98120.34;5045198;28;20350;-88
2022/11/06 00:21:42;;;;;;;;;;;;;;;8.42;100.00;98121.13;5040762;28;19912;-88
2022/11/06 00:24:08;;;;;;;;;;;;;;;8.40;100.00;98114.50;5058872;28;19916;-88
2022/11/06 00:26:34;;;;;;;;;;;;;;;8.50;100.00;98114.91;5053181;28;19960;-88
2022/11/06 00:29:00;;;;;;;;;;;;;;;8.50;100.00;98119.34;5063741;28;19981;-88
2022/11/06 00:31:27;;;;;;;;;;;;;;;8.52;100.00;98117.34;5042818;28;19955;-88
2022/11/06 00:33:56;;;;;;;;;;;;;;;8.67;100.00;98117.09;5034882;28;19912;-88
2022/11/06 00:36:22;;;;;;;;;;;;;;;8.75;100.00;98108.22;5059601;28;19921;-86
2022/11/06 00:38:52;;;;;;;;;;;;;;;8.76;100.00;98113.28;5046530;28;19920;-87
2022/11/06 00:41:17;;;;;;;;;;;;;;;8.75;100.00;98113.47;5057450;28;19920;-89
2022/11/06 00:43:47;;;;;;;;;;;;;;;8.69;100.00;98122.94;5063171;28;19916;-88
2022/11/06 00:46:13;;;;;;;;;;;;;;;8.64;100.00;98107.06;5052488;28;20440;-88
2022/11/06 00:48:42;;;;;;;;;;;;;;;8.56;100.00;98113.31;5057486;28;19998;-88
2022/11/06 00:51:10;;;;;;;;;;;;;;;8.41;100.00;98106.44;5054080;28;20007;-86
2022/11/06 00:53:39;;;;;;;;;;;;;;;8.18;100.00;98100.84;5051828;28;19936;-86
2022/11/06 00:56:11;;;;;;;;;;;;;;;8.33;100.00;98096.22;5052787;28;19917;-88
2022/11/06 00:58:37;;;;;;;;;;;;;;;8.35;100.00;98088.97;5053777;28;20397;-88
2022/11/06 01:01:06;;;;;;;;;;;;;;;8.27;100.00;98099.66;5017043;28;19999;-88
2022/11/06 01:03:32;;;;;;;;;;;;;;;8.09;100.00;98098.44;5053075;28;19924;-88
2022/11/06 01:06:04;;;;;;;;;;;;;;;8.04;100.00;98094.81;5062066;28;20290;-87
2022/11/06 01:08:30;;;;;;;;;;;;;;;7.97;100.00;98100.88;5058881;28;19912;-88
2022/11/06 01:10:56;;;;;;;;;;;;;;;7.94;100.00;98098.63;5043528;28;19912;-87
2022/11/06 01:13:22;;;;;;;;;;;;;;;8.00;100.00;98097.03;5055871;28;20283;-90
2022/11/06 01:15:47;;;;;;;;;;;;;;;8.04;100.00;98098.22;5028595;28;20330;-87
2022/11/06 01:18:13;;;;;;;;;;;;;;;8.07;100.00;98099.63;5049441;28;20320;-88
2022/11/06 01:20:38;;;;;;;;;;;;;;;8.07;100.00;98091.81;5058047;28;19913;-87
2022/11/06 01:23:03;;;;;;;;;;;;;;;8.08;100.00;98091.63;5052183;28;20366;-91
2022/11/06 01:25:29;;;;;;;;;;;;;;;8.08;100.00;98086.38;5027101;28;19917;-88
2022/11/06 01:27:55;;;;;;;;;;;;;;;8.08;100.00;98086.38;5043433;28;19959;-87
2022/11/06 01:30:20;;;;;;;;;;;;;;;8.04;100.00;98081.75;5056739;28;19982;-90
2022/11/06 01:32:45;;;;;;;;;;;;;;;7.94;100.00;98084.78;5055786;28;19920;-89
2022/11/06 01:35:11;;;;;;;;;;;;;;;7.78;100.00;98084.16;5045247;28;19920;-89
2022/11/06 01:37:36;;;;;;;;;;;;;;;7.71;100.00;98085.97;5047618;28;19919;-81
2022/11/06 01:40:02;;;;;;;;;;;;;;;7.57;100.00;98080.72;5057029;28;19912;-83
2022/11/06 01:42:27;;;;;;;;;;;;;;;7.45;100.00;98077.06;5055080;28;19917;-82
2022/11/06 01:44:56;;;;;;;;;;;;;;;7.40;100.00;98079.47;5046104;28;20306;-81
2022/11/06 01:47:21;;;;;;;;;;;;;;;7.45;100.00;98076.28;5057442;28;19924;-82
2022/11/06 01:49:49;;;;;;;;;;;;;;;7.46;100.00;98073.44;5057715;28;19912;-81
2022/11/06 01:52:15;;;;;;;;;;;;;;;7.56;100.00;98068.66;5033458;28;19971;-82
2022/11/06 01:54:42;;;;;;;;;;;;;;;7.57;100.00;98054.59;5049042;28;19912;-82
2022/11/06 01:57:09;;;;;;;;;;;;;;;7.56;100.00;98060.81;5042711;28;19963;-82
2022/11/06 01:59:37;;;;;;;;;;;;;;;7.45;100.00;98056.19;5048593;28;19924;-82
2022/11/06 02:02:03;;;;;;;;;;;;;;;7.54;100.00;98049.78;5022442;28;19927;-82
2022/11/06 02:04:36;;;;;;;;;;;;;;;7.54;100.00;98044.56;5035047;28;20373;-82
2022/11/06 02:07:05;;;;;;;;;;;;;;;7.49;100.00;98049.56;5031496;28;19919;-82
2022/11/06 02:09:32;;;;;;;;;;;;;;;7.35;100.00;98046.13;5044781;28;20370;-82
2022/11/06 02:12:01;;;;;;;;;;;;;;;7.27;100.00;98044.53;5046302;28;20362;-81
2022/11/06 02:14:39;;;;;;;;;;;;;;;7.24;100.00;98034.44;5050653;28;20255;-82
2022/11/06 02:17:18;;;;;;;;;;;;;;;7.34;100.00;98038.50;5023656;28;19965;-82
2022/11/06 02:19:52;;;;;;;;;;;;;;;7.37;100.00;98022.44;5057885;28;20531;-83
2022/11/06 02:22:37;;;;;;;;;;;;;;;7.40;100.00;98029.88;5042370;28;20363;-82
2022/11/06 02:25:02;;;;;;;;;;;;;;;7.39;100.00;98023.84;5043548;28;19966;-83
2022/11/06 02:27:28;;;;;;;;;;;;;;;7.42;100.00;98018.22;5033782;28;19913;-83
2022/11/06 02:29:53;;;;;;;;;;;;;;;7.39;100.00;98009.97;5029789;28;19963;-83
2022/11/06 02:32:22;;;;;;;;;;;;;;;7.31;100.00;98008.38;5017915;28;19947;-82
2022/11/06 02:34:50;;;;;;;;;;;;;;;7.35;100.00;98003.56;5052048;28;20282;-81
2022/11/06 02:37:19;;;;;;;;;;;;;;;7.23;100.00;98001.53;5043816;28;20386;-81
2022/11/06 02:39:46;;;;;;;;;;;;;;;7.37;100.00;98001.56;5034274;28;19912;-82
2022/11/06 02:42:14;;;;;;;;;;;;;;;7.27;100.00;97997.53;5027129;28;20046;-83
2022/11/06 02:44:40;;;;;;;;;;;;;;;7.29;100.00;97995.53;5048545;28;19931;-82
2022/11/06 02:47:08;;;;;;;;;;;;;;;7.46;100.00;97989.91;5031330;28;19925;-82
2022/11/06 02:49:34;;;;;;;;;;;;;;;7.52;100.00;97990.91;5033047;28;20675;-82
2022/11/06 02:52:07;;;;;;;;;;;;;;;7.45;100.00;97988.28;5045409;28;19928;-81
2022/11/06 02:54:35;;;;;;;;;;;;;;;7.38;100.00;97987.50;5050045;28;19999;-82
2022/11/06 02:57:04;;;;;;;;;;;;;;;7.41;100.00;97987.09;5043731;28;19912;-83
2022/11/06 02:59:49;;;;;;;;;;;;;;;7.36;100.00;97979.06;5029992;28;20361;-82
2022/11/06 03:02:26;;;;;;;;;;;;;;;7.33;100.00;97979.47;5042187;28;20004;-81
2022/11/06 03:04:57;;;;;;;;;;;;;;;7.31;100.00;97978.84;5034572;28;19923;-81
2022/11/06 03:07:22;;;;;;;;;;;;;;;7.32;100.00;97972.63;5050063;28;19913;-81
2022/11/06 03:09:48;;;;;;;;;;;;;;;7.33;100.00;97979.47;5048758;28;19921;-81
2022/11/06 03:12:20;;;;;;;;;;;;;;;7.34;100.00;97965.41;5054448;28;19923;-80
2022/11/06 03:14:54;;;;;;;;;;;;;;;7.34;100.00;97965.41;5064427;28;19958;-81
2022/11/06 03:17:28;;;;;;;;;;;;;;;7.35;100.00;97957.34;5041747;28;20000;-82
2022/11/06 03:20:02;;;;;;;;;;;;;;;7.16;100.00;97945.91;5043002;28;19966;-82
2022/11/06 03:22:31;;;;;;;;;;;;;;;7.32;100.00;97951.75;5048778;28;19912;-83
2022/11/06 03:25:01;;;;;;;;;;;;;;;7.31;100.00;97942.31;5042975;28;19917;-82
2022/11/06 03:27:33;;;;;;;;;;;;;;;7.31;100.00;97939.72;5045146;28;19964;-81
2022/11/06 03:30:05;;;;;;;;;;;;;;;7.32;100.00;97941.31;5043340;28;19965;-82
2022/11/06 03:32:46;;;;;;;;;;;;;;;7.26;100.00;97935.88;5047413;28;19959;-82
2022/11/06 03:35:17;;;;;;;;;;;;;;;7.28;100.00;97935.69;5043611;28;19927;-81
2022/11/06 03:37:46;;;;;;;;;;;;;;;7.13;100.00;97920.22;5056379;28;20379;-82
2022/11/06 03:40:15;;;;;;;;;;;;;;;7.17;100.00;97913.59;5057498;28;19912;-82
2022/11/06 03:42:42;;;;;;;;;;;;;;;7.05;100.00;97915.19;5056651;28;19988;-81
2022/11/06 03:45:10;;;;;;;;;;;;;;;7.17;100.00;97918.00;5030685;28;20011;-81
2022/11/06 03:47:40;;;;;;;;;;;;;;;7.20;100.00;97913.19;5047753;28;19928;-81
2022/11/06 03:50:05;;;;;;;;;;;;;;;7.09;100.00;97908.59;5043073;28;19912;-82
2022/11/06 03:52:37;;;;;;;;;;;;;;;7.05;100.00;97905.56;5043025;28;19908;-81
2022/11/06 03:55:06;;;;;;;;;;;;;;;7.08;100.00;97902.53;5028470;28;19951;-81
2022/11/06 03:57:47;;;;;;;;;;;;;;;7.10;100.00;97894.53;5045815;28;19928;-81
2022/11/06 04:00:13;;;;;;;;;;;;;;;6.99;100.00;97899.31;5028692;28;20485;-81
2022/11/06 04:02:42;;;;;;;;;;;;;;;7.13;100.00;97894.13;5043284;28;19956;-81
2022/11/06 04:05:12;;;;;;;;;;;;;;;6.96;100.00;97888.47;5027297;28;20301;-81
2022/11/06 04:07:40;;;;;;;;;;;;;;;7.18;100.00;97902.16;5050986;28;19913;-81
2022/11/06 04:15:50;;;;;;;;;;;;;;;7.03;100.00;97888.47;5053173;28;19948;-82
2022/11/06 04:18:21;;;;;;;;;;;;;;;6.96;100.00;97880.66;5029845;28;20437;-82
2022/11/06 04:27:07;;;;;;;;;;;;;;;7.02;100.00;97868.63;5024864;28;19923;-81
2022/11/06 04:29:36;;;;;;;;;;;;;;;6.81;100.00;97873.00;5011567;28;19958;-82
2022/11/06 04:32:09;;;;;;;;;;;;;;;6.87;100.00;97864.38;5056231;28;19964;-82
2022/11/06 04:34:48;;;;;;;;;;;;;;;6.94;100.00;97857.38;5048795;28;19920;-82
2022/11/06 04:37:20;;;;;;;;;;;;;;;6.90;100.00;97850.97;5053667;28;20317;-82
2022/11/06 04:40:01;;;;;;;;;;;;;;;6.95;100.00;97848.56;5058242;28;19963;-82
2022/11/06 04:42:38;;;;;;;;;;;;;;;6.84;100.00;97855.16;5020261;28;19913;-82
2022/11/06 04:45:07;;;;;;;;;;;;;;;6.98;100.00;97853.38;5059450;28;19927;-83
2022/11/06 04:47:35;;;;;;;;;;;;;;;7.04;100.00;97845.72;5031667;28;19917;-82
2022/11/06 04:50:02;;;;;;;;;;;;;;;7.11;100.00;97851.78;5024934;28;19912;-81
2022/11/06 04:52:28;;;;;;;;;;;;;;;7.08;100.00;97854.78;5039603;28;19913;-83
2022/11/06 04:54:57;;;;;;;;;;;;;;;7.05;100.00;97853.38;5024385;28;20285;-82
2022/11/06 04:57:23;;;;;;;;;;;;;;;7.09;100.00;97845.94;5045913;28;19956;-83
2022/11/06 04:59:49;;;;;;;;;;;;;;;7.15;100.00;97853.75;5040948;28;19967;-82
2022/11/06 05:02:17;;;;;;;;;;;;;;;7.28;100.00;97847.75;5039179;28;20350;-82
2022/11/06 05:04:44;;;;;;;;;;;;;;;7.33;100.00;97848.94;5045319;28;19966;-82
2022/11/06 05:07:11;;;;;;;;;;;;;;;7.58;100.00;97847.28;5037733;28;19951;-83
2022/11/06 05:09:37;;;;;;;;;;;;;;;7.74;100.00;97840.00;5043457;28;19923;-82
2022/11/06 05:12:02;;;;;;;;;;;;;;;7.84;100.00;97837.75;5025906;28;20012;-82
2022/11/06 05:14:28;;;;;;;;;;;;;;;7.92;100.00;97841.16;5045630;28;19909;-82
2022/11/06 05:16:54;;;;;;;;;;;;;;;7.99;100.00;97841.94;5054991;28;19969;-84
2022/11/06 05:19:19;;;;;;;;;;;;;;;8.14;100.00;97829.41;5044413;28;19912;-83
2022/11/06 05:24:29;;;;;;;;;;;;;;;8.14;100.00;97824.19;5057156;28;20485;-82
2022/11/06 05:26:54;;;;;;;;;;;;;;;8.23;100.00;97826.53;5016738;28;20008;-83
2022/11/06 05:29:20;;;;;;;;;;;;;;;8.26;100.00;97826.16;5048664;28;20362;-83
2022/11/06 05:31:45;;;;;;;;;;;;;;;8.18;100.00;97815.91;5041627;28;19966;-82
2022/11/06 05:34:11;;;;;;;;;;;;;;;8.32;100.00;97809.63;5043854;28;19927;-82
2022/11/06 05:36:36;;;;;;;;;;;;;;;8.37;100.00;97822.06;5047736;28;19965;-82
2022/11/06 05:39:02;;;;;;;;;;;;;;;8.22;100.00;97814.47;5053169;28;19919;-82
2022/11/06 05:41:28;;;;;;;;;;;;;;;8.32;100.00;97820.06;5024525;28;19962;-82
2022/11/06 05:43:53;;;;;;;;;;;;;;;8.15;100.00;97820.56;5051355;28;19916;-82
2022/11/06 05:46:19;;;;;;;;;;;;;;;8.37;100.00;97817.63;5042658;28;19919;-82
2022/11/06 05:48:44;;;;;;;;;;;;;;;8.40;100.00;97813.78;5037810;28;19919;-82
2022/11/06 05:51:10;;;;;;;;;;;;;;;8.37;100.00;97812.41;5034028;28;19912;-82
2022/11/06 05:53:36;;;;;;;;;;;;;;;8.43;100.00;97810.75;5038036;28;19913;-82
2022/11/06 05:56:01;;;;;;;;;;;;;;;8.36;100.00;97805.56;5057433;28;19920;-81
2022/11/06 05:58:27;;;;;;;;;;;;;;;8.44;100.00;97802.69;5044860;28;20012;-82
2022/11/06 06:00:56;;;;;;;;;;;;;;;8.51;100.00;97812.34;5052340;28;19913;-82
2022/11/06 06:03:23;;;;;;;;;;;;;;;8.49;100.00;97803.88;5046131;28;19951;-82
2022/11/06 06:05:48;;;;;;;;;;;;;;;8.60;100.00;97799.81;5042722;28;19917;-81
2022/11/06 06:08:14;;;;;;;;;;;;;;;8.56;100.00;97795.03;5024264;28;20011;-82
2022/11/06 06:10:43;;;;;;;;;;;;;;;8.51;100.00;97786.19;5045215;28;19912;-83
2022/11/06 06:13:10;;;;;;;;;;;;;;;8.61;100.00;97783.13;5042190;28;19919;-84
2022/11/06 06:15:39;;;;;;;;;;;;;;;8.60;100.00;97787.53;5044319;28;19913;-82
2022/11/06 06:18:05;;;;;;;;;;;;;;;8.65;100.00;97782.47;5040150;28;19917;-82
2022/11/06 06:20:31;;;;;;;;;;;;;;;8.66;100.00;97778.03;5020609;28;19913;-82
2022/11/06 06:22:57;;;;;;;;;;;;;;;8.74;100.00;97774.34;5051526;28;19925;-82
2022/11/06 06:25:23;;;;;;;;;;;;;;;8.74;100.00;97772.53;5042235;28;19960;-82
2022/11/06 06:27:48;;;;;;;;;;;;;;;8.71;100.00;97768.53;5051829;28;19913;-82
2022/11/06 06:30:14;;;;;;;;;;;;;;;8.65;100.00;97766.78;5045436;28;19916;-82
2022/11/06 06:32:39;;;;;;;;;;;;;;;8.76;100.00;97751.41;5041776;28;19922;-83
2022/11/06 06:35:05;;;;;;;;;;;;;;;8.75;100.00;97757.63;5064695;28;20362;-83
2022/11/06 06:37:30;;;;;;;;;;;;;;;8.76;100.00;97746.97;5047382;28;19921;-83
2022/11/06 06:39:56;;;;;;;;;;;;;;;8.83;100.00;97752.94;5050452;28;19912;-83
2022/11/06 06:42:22;;;;;;;;;;;;;;;8.83;100.00;97742.47;5030231;28;19908;-83
2022/11/06 06:44:47;;;;;;;;;;;;;;;8.84;100.00;97744.06;5057669;28;19916;-83
2022/11/06 06:47:15;;;;;;;;;;;;;;;8.88;100.00;97743.63;5063280;28;19916;-82
2022/11/06 06:49:42;;;;;;;;;;;;;;;8.84;100.00;97738.03;5048719;28;20427;-83
2022/11/06 06:52:09;;;;;;;;;;;;;;;8.55;100.00;97735.88;5058532;28;20263;-85
2022/11/06 06:54:34;;;;;;;;;;;;;;;8.59;100.00;97731.00;5042175;28;19923;-83
2022/11/06 06:56:59;;;;;;;;;;;;;;;8.66;100.00;97737.00;5063051;28;20309;-83
2022/11/06 06:59:26;;;;;;;;;;;;;;;8.71;100.00;97731.09;5057346;28;19917;-83
2022/11/06 07:01:52;;;;;;;;;;;;;;;8.76;100.00;97722.63;5060461;28;19919;-82
2022/11/06 07:04:18;;;;;;;;;;;;;;;8.84;100.00;97722.31;5025974;28;19917;-83
2022/11/06 07:06:43;;;;;;;;;;;;;;;8.71;100.00;97713.59;5032731;28;20358;-84
2022/11/06 07:09:09;;;;;;;;;;;;;;;8.77;100.00;97696.25;5058566;28;19935;-83
2022/11/06 07:11:35;;;;;;;;;;;;;;;8.77;100.00;97703.28;5042987;28;19962;-83
2022/11/06 07:14:01;;;;;;;;;;;;;;;8.82;100.00;97706.03;5051401;28;19956;-83
2022/11/06 07:16:28;;;;;;;;;;;;;;;8.81;100.00;97712.28;5044284;28;20266;-82
2022/11/06 07:18:54;;;;;;;;;;;;;;;8.93;100.00;97704.53;5046100;28;19921;-84
2022/11/06 07:21:21;;;;;;;;;;;;;;;8.94;100.00;97704.31;5036047;28;19956;-83
2022/11/06 07:23:46;;;;;;;;;;;;;;;8.97;100.00;97701.28;5046857;28;19952;-82
2022/11/06 07:26:12;;;;;;;;;;;;;;;9.00;100.00;97695.59;5065422;28;19955;-84
2022/11/06 07:28:38;;;;;;;;;;;;;;;8.99;100.00;97686.16;5053957;28;20327;-83
2022/11/06 07:31:05;;;;;;;;;;;;;;;9.06;100.00;97685.31;5028638;28;20015;-82
2022/11/06 07:33:30;;;;;;;;;;;;;;;9.12;100.00;97676.56;5053940;28;19919;-82
2022/11/06 07:36:01;;;;;;;;;;;;;;;9.18;100.00;97659.19;5043619;28;19912;-82
2022/11/06 07:38:26;;;;;;;;;;;;;;;9.08;100.00;97654.47;5041245;28;19913;-81
2022/11/06 07:40:52;;;;;;;;;;;;;;;9.06;100.00;97652.06;5042690;28;19965;-82
2022/11/06 07:43:17;;;;;;;;;;;;;;;9.07;100.00;97652.88;5044984;28;19935;-82
2022/11/06 07:45:43;;;;;;;;;;;;;;;9.18;100.00;97633.78;5053485;28;19920;-82
2022/11/06 07:48:08;;;;;;;;;;;;;;;9.21;100.00;97656.91;5062321;28;19926;-83
2022/11/06 07:50:33;;;;;;;;;;;;;;;9.24;100.00;97648.66;5044361;28;20274;-81
2022/11/06 07:53:02;;;;;;;;;;;;;;;9.27;100.00;97642.97;5049037;28;20313;-82
2022/11/06 07:55:28;;;;;;;;;;;;;;;9.37;100.00;97642.44;5056407;28;19913;-81
2022/11/06 07:57:53;;;;;;;;;;;;;;;9.45;100.00;97643.13;5041693;28;20382;-82
2022/11/06 08:00:19;;;;;;;;;;;;;;;9.24;100.00;97632.94;5042337;28;20305;-82
2022/11/06 08:02:49;;;;;;;;;;;;;;;9.43;100.00;97636.31;5049313;28;19913;-82
2022/11/06 08:05:14;;;;;;;;;;;;;;;9.35;100.00;97641.06;5048663;28;19920;-82
2022/11/06 08:07:40;;;;;;;;;;;;;;;9.52;100.00;97634.19;5043422;28;20346;-82
2022/11/06 08:10:05;;;;;;;;;;;;;;;9.62;100.00;97632.84;5063121;28;19927;-83
2022/11/06 08:12:31;;;;;;;;;;;;;;;9.61;100.00;97642.53;5045280;28;19913;-84
2022/11/06 08:14:56;;;;;;;;;;;;;;;9.65;100.00;97637.66;5041731;28;19924;-83
2022/11/06 08:17:21;;;;;;;;;;;;;;;9.65;100.00;97637.66;5057905;28;20320;-87
2022/11/06 08:19:47;;;;;;;;;;;;;;;9.70;100.00;97645.63;5048939;28;19912;-82
2022/11/06 08:22:13;;;;;;;;;;;;;;;9.75;100.00;97637.91;5023976;28;20377;-84
2022/11/06 08:24:39;;;;;;;;;;;;;;;9.83;100.00;97631.53;5037890;28;19961;-83
2022/11/06 08:27:05;;;;;;;;;;;;;;;9.69;100.00;97623.06;5037123;28;20390;-86
2022/11/06 08:29:30;;;;;;;;;;;;;;;9.64;100.00;97617.72;5023708;28;20007;-84
2022/11/06 08:31:58;;;;;;;;;;;;;;;9.86;100.00;97618.78;5055269;28;19921;-85
2022/11/06 08:34:24;;;;;;;;;;;;;;;9.98;100.00;97623.25;5053460;28;19916;-84
2022/11/06 08:36:50;;;;;;;;;;;;;;;10.10;100.00;97608.34;5060452;28;19916;-84
2022/11/06 08:39:16;;;;;;;;;;;;;;;9.98;100.00;97604.88;5058994;28;20409;-84
2022/11/06 08:41:41;;;;;;;;;;;;;;;10.17;100.00;97602.19;5042849;28;20012;-83
2022/11/06 08:44:08;;;;;;;;;;;;;;;10.22;100.00;97595.22;5053156;28;19995;-87
2022/11/06 08:46:33;;;;;;;;;;;;;;;10.17;100.00;97597.75;5046342;28;19917;-83
2022/11/06 08:48:59;;;;;;;;;;;;;;;10.25;100.00;97586.91;5041060;28;19919;-84
2022/11/06 08:51:24;;;;;;;;;;;;;;;10.15;100.00;97584.06;5058979;28;20316;-85
2022/11/06 08:53:49;;;;;;;;;;;;;;;10.19;100.00;97587.00;5026456;28;19977;-85
2022/11/06 08:56:15;;;;;;;;;;;;;;;10.05;100.00;97584.63;5027424;28;19939;-84
2022/11/06 08:58:41;;;;;;;;;;;;;;;10.24;100.00;97576.66;5043426;28;19970;-86
2022/11/06 09:01:06;;;;;;;;;;;;;;;10.25;100.00;97573.78;5026171;28;20057;-85
2022/11/06 09:03:32;;;;;;;;;;;;;;;10.36;100.00;97572.19;5038740;28;19917;-84
2022/11/06 09:05:57;;;;;;;;;;;;;;;10.48;100.00;97571.44;5050423;28;19981;-86
2022/11/06 09:08:23;;;;;;;;;;;;;;;10.26;100.00;97572.75;5048211;28;19936;-85
2022/11/06 09:10:48;;;;;;;;;;;;;;;10.43;100.00;97572.91;5043876;28;20007;-83
2022/11/06 09:13:14;;;;;;;;;;;;;;;10.43;100.00;97564.25;5038400;28;19920;-85
2022/11/06 09:15:39;;;;;;;;;;;;;;;10.37;100.00;97563.28;5043711;28;20366;-87
2022/11/06 09:18:04;;;;;;;;;;;;;;;10.20;100.00;97565.81;5050272;28;19913;-83
2022/11/06 09:20:30;;;;;;;;;;;;;;;10.23;100.00;97569.81;5023772;28;20359;-85
2022/11/06 09:22:59;;;;;;;;;;;;;;;10.22;100.00;97541.97;5041022;28;19988;-83
2022/11/06 09:25:24;;;;;;;;;;;;;;;10.10;100.00;97550.66;5045915;28;20374;-83
2022/11/06 09:27:51;;;;;;;;;;;;;;;10.02;100.00;97556.22;5051778;28;19916;-83
2022/11/06 09:30:18;;;;;;;;;;;;;;;10.34;100.00;97555.88;5038173;28;19909;-82
2022/11/06 09:32:47;;;;;;;;;;;;;;;10.35;100.00;97557.47;5052353;28;19913;-83
2022/11/06 09:35:16;;;;;;;;;;;;;;;10.45;100.00;97556.94;5031968;28;20324;-82
2022/11/06 09:37:42;;;;;;;;;;;;;;;10.53;100.00;97563.66;5039358;28;19912;-82
2022/11/06 09:40:16;;;;;;;;;;;;;;;10.42;100.00;97560.81;5053209;28;19954;-83
2022/11/06 09:43:06;;;;;;;;;;;;;;;10.17;100.00;97553.16;5035716;28;19908;-83
2022/11/06 09:45:39;;;;;;;;;;;;;;;10.03;100.00;97539.50;5051185;28;20313;-84
2022/11/06 09:48:05;;;;;;;;;;;;;;;10.35;100.00;97530.47;5022411;28;20365;-83
2022/11/06 09:50:34;;;;;;;;;;;;;;;10.42;100.00;97529.34;5034929;28;19951;-83
2022/11/06 09:53:10;;;;;;;;;;;;;;;10.31;100.00;97522.25;5028481;28;20325;-85
2022/11/06 09:55:39;;;;;;;;;;;;;;;10.30;100.00;97525.91;5040166;28;20347;-86
2022/11/06 09:58:12;;;;;;;;;;;;;;;10.38;100.00;97532.63;5031686;28;20362;-83
2022/11/06 10:00:39;;;;;;;;;;;;;;;10.56;100.00;97536.94;5040134;28;19920;-83
2022/11/06 10:03:17;;;;;;;;;;;;;;;10.47;100.00;97533.09;5049206;28;20397;-82
2022/11/06 10:05:44;;;;;;;;;;;;;;;10.83;100.00;97531.19;5025836;28;19917;-83
2022/11/06 10:08:13;;;;;;;;;;;;;;;10.93;100.00;97526.13;5045109;28;19971;-84
2022/11/06 10:10:48;;;;;;;;;;;;;;;11.17;100.00;97520.00;5036396;28;20413;-84
2022/11/06 10:13:23;;;;;;;;;;;;;;;11.44;100.00;97514.94;5043590;28;20310;-86
2022/11/06 10:16:03;;;;;;;;;;;;;;;11.19;100.00;97512.66;5042131;28;19913;-83
2022/11/06 10:18:34;;;;;;;;;;;;;;;10.82;100.00;97511.22;5040509;28;19947;-85
2022/11/06 10:21:19;;;;;;;;;;;;;;;11.13;100.00;97506.53;5043695;28;19920;-83
2022/11/06 10:23:51;;;;;;;;;;;;;;;11.18;100.00;97506.59;5047269;28;19912;-88
2022/11/06 10:26:22;;;;;;;;;;;;;;;11.09;100.00;97502.78;5044228;28;19917;-84
2022/11/06 10:28:54;;;;;;;;;;;;;;;10.98;100.00;97497.34;5034759;28;19939;-84
2022/11/06 10:31:28;;;;;;;;;;;;;;;11.05;100.00;97499.81;5042922;28;20371;-84
2022/11/06 10:33:54;;;;;;;;;;;;;;;11.29;100.00;97505.75;5043031;28;19917;-85
2022/11/06 10:36:23;;;;;;;;;;;;;;;11.47;100.00;97498.69;5029159;28;19913;-84
2022/11/06 10:38:49;;;;;;;;;;;;;;;11.67;100.00;97492.16;5035116;28;19917;-85
2022/11/06 10:41:20;;;;;;;;;;;;;;;11.77;100.00;97494.16;5045483;28;19928;-85
2022/11/06 10:43:54;;;;;;;;;;;;;;;12.29;100.00;97482.53;5023803;28;19913;-86
2022/11/06 10:46:25;;;;;;;;;;;;;;;12.53;100.00;97477.00;5043250;28;19921;-86
2022/11/06 10:48:56;;;;;;;;;;;;;;;12.55;100.00;97474.94;5031056;28;20070;-84
2022/11/06 10:51:22;;;;;;;;;;;;;;;12.82;100.00;97466.28;5039065;28;19913;-84
2022/11/06 10:53:47;;;;;;;;;;;;;;;12.86;100.00;97462.09;5056974;28;19917;-82
2022/11/06 10:56:19;;;;;;;;;;;;;;;12.70;100.00;97455.91;5051705;28;19917;-87
2022/11/06 10:58:44;;;;;;;;;;;;;;;12.52;100.00;97454.38;5044747;28;19917;-84
2022/11/06 11:01:12;;;;;;;;;;;;;;;12.28;100.00;97460.69;5043129;28;19988;-85
2022/11/06 11:03:42;;;;;;;;;;;;;;;12.57;100.00;97457.06;5053362;28;20007;-84
2022/11/06 11:06:08;;;;;;;;;;;;;;;12.90;100.00;97468.47;5050964;28;19941;-85
2022/11/06 11:08:36;;;;;;;;;;;;;;;13.02;100.00;97460.41;5058398;28;20007;-84
2022/11/06 11:11:03;;;;;;;;;;;;;;;13.12;100.00;97464.97;5054065;28;19913;-85
2022/11/06 11:13:29;;;;;;;;;;;;;;;13.00;100.00;97438.78;5063095;28;19981;-84
2022/11/06 11:15:54;;;;;;;;;;;;;;;13.27;100.00;97433.50;5029575;28;19917;-84
2022/11/06 11:18:30;;;;;;;;;;;;;;;13.14;100.00;97418.09;5044992;28;19913;-84
2022/11/06 11:21:22;;;;;;;;;;;;;;;12.77;100.00;97422.25;5041898;28;20386;-84
2022/11/06 11:24:12;;;;;;;;;;;;;;;12.62;100.00;97415.00;5042281;28;19958;-85
2022/11/06 11:26:41;;;;;;;;;;;;;;;12.63;100.00;97407.91;5054166;28;19916;-84
2022/11/06 11:29:36;;;;;;;;;;;;;;;12.50;100.00;97393.28;5053614;28;20362;-85
2022/11/06 11:32:04;;;;;;;;;;;;;;;12.53;100.00;97387.53;5021909;28;19975;-84
2022/11/06 11:34:33;;;;;;;;;;;;;;;12.48;100.00;97384.84;5059002;28;19947;-85
2022/11/06 11:37:03;;;;;;;;;;;;;;;12.34;100.00;97384.44;5047129;28;19913;-84
2022/11/06 11:39:29;;;;;;;;;;;;;;;12.43;100.00;97388.22;5052767;28;19913;-84
2022/11/06 11:42:15;;;;;;;;;;;;;;;12.46;100.00;97386.94;5050933;28;19913;-84
2022/11/06 11:44:41;;;;;;;;;;;;;;;12.56;100.00;97369.41;5041990;28;19917;-85
2022/11/06 11:47:19;;;;;;;;;;;;;;;12.81;100.00;97356.75;5041566;28;20310;-85
2022/11/06 11:49:45;;;;;;;;;;;;;;;12.76;100.00;97359.31;5052779;28;19990;-83
2022/11/06 11:52:11;;;;;;;;;;;;;;;13.07;100.00;97343.78;5023523;28;19952;-83
2022/11/06 11:54:37;;;;;;;;;;;;;;;13.21;100.00;97337.03;5044205;28;19917;-83
2022/11/06 11:57:16;;;;;;;;;;;;;;;13.06;100.00;97336.91;5043187;28;19920;-84
2022/11/06 12:00:05;;;;;;;;;;;;;;;12.89;100.00;97332.56;5045052;28;20401;-85
2022/11/06 12:02:51;;;;;;;;;;;;;;;13.28;100.00;97340.22;5031160;28;19919;-84
2022/11/06 12:05:21;;;;;;;;;;;;;;;13.42;100.00;97350.34;5059358;28;20306;-84
2022/11/06 12:07:48;;;;;;;;;;;;;;;13.76;100.00;97357.13;5050018;28;19913;-83
2022/11/06 12:10:27;;;;;;;;;;;;;;;13.62;100.00;97344.38;5044489;28;19921;-84
2022/11/06 12:12:53;;;;;;;;;;;;;;;13.58;100.00;97343.31;5021893;28;19920;-85
2022/11/06 12:15:26;;;;;;;;;;;;;;;13.35;100.00;97331.28;5054116;28;19913;-84
2022/11/06 12:17:58;;;;;;;;;;;;;;;13.42;100.00;97318.72;5038790;28;19912;-83
2022/11/06 12:20:26;;;;;;;;;;;;;;;13.43;100.00;97307.16;5052005;28;19995;-84
2022/11/06 12:22:53;;;;;;;;;;;;;;;13.36;100.00;97314.44;5059778;28;19959;-84
2022/11/06 12:25:33;;;;;;;;;;;;;;;13.44;100.00;97321.91;5038102;28;20334;-85
2022/11/06 12:27:59;;;;;;;;;;;;;;;13.23;100.00;97305.16;5041876;28;19921;-84
2022/11/06 12:30:34;;;;;;;;;;;;;;;13.16;100.00;97300.09;5051792;28;19913;-83
2022/11/06 12:33:19;;;;;;;;;;;;;;;13.27;100.00;97300.97;5049499;28;20314;-83
2022/11/06 12:35:57;;;;;;;;;;;;;;;13.55;100.00;97281.34;5040517;28;19943;-84
2022/11/06 12:38:23;;;;;;;;;;;;;;;13.59;100.00;97281.63;5032107;28;19912;-84
2022/11/06 12:40:58;;;;;;;;;;;;;;;13.40;100.00;97283.91;5029011;28;20317;-85
2022/11/06 12:43:27;;;;;;;;;;;;;;;13.61;100.00;97276.13;5037234;28;19913;-84
2022/11/06 12:46:11;;;;;;;;;;;;;;;13.55;100.00;97272.66;5044800;28;19921;-84
2022/11/06 12:49:02;;;;;;;;;;;;;;;13.50;100.00;97272.66;5051028;28;19966;-83
2022/11/06 12:51:46;;;;;;;;;;;;;;;13.77;100.00;97261.94;5044466;28;19931;-84
2022/11/06 12:54:14;;;;;;;;;;;;;;;13.37;100.00;97258.06;5058407;28;19920;-85
2022/11/06 12:56:54;;;;;;;;;;;;;;;13.28;100.00;97245.38;5042760;28;19920;-83
2022/11/06 12:59:38;;;;;;;;;;;;;;;13.43;100.00;97242.03;5054353;28;20425;-84
2022/11/06 13:02:21;;;;;;;;;;;;;;;13.41;100.00;97246.75;5049916;28;20015;-84
2022/11/06 13:04:49;;;;;;;;;;;;;;;13.42;100.00;97237.00;5025214;28;19992;-84
2022/11/06 13:07:25;;;;;;;;;;;;;;;13.21;100.00;97228.19;5045517;28;19970;-84